sensor_id;sensor_type;location;lat;lon;timestamp;P1;durP1;ratioP1;P2;durP2;ratioP2
72864;SDS011;61000;48.120;11.548;2023-07-29T00:02:14;3.75;;;3.30;;
72864;SDS011;61000;48.120;11.548;2023-07-29T00:04:43;5.65;;;3.85;;
72864;SDS011;61000;48.120;11.548;2023-07-29T00:07:09;4.35;;;3.35;;
72864;SDS011;61000;48.120;11.548;2023-07-29T00:09:36;7.10;;;3.67;;
72864;SDS011;61000;48.120;11.548;2023-07-29T00:12:03;4.22;;;3.30;;
72864;SDS011;61000;48.120;11.548;2023-07-29T00:14:31;4.97;;;3.13;;
72864;SDS011;61000;48.120;11.548;2023-07-29T00:16:58;3.53;;;2.80;;
72864;SDS011;61000;48.120;11.548;2023-07-29T00:19:24;4.47;;;3.35;;
72864;SDS011;61000;48.120;11.548;2023-07-29T00:21:55;4.15;;;3.10;;
72864;SDS011;61000;48.120;11.548;2023-07-29T00:24:21;3.70;;;3.30;;
72864;SDS011;61000;48.120;11.548;2023-07-29T00:26:48;4.03;;;3.00;;
72864;SDS011;61000;48.120;11.548;2023-07-29T00:29:15;4.25;;;3.63;;
72864;SDS011;61000;48.120;11.548;2023-07-29T00:31:42;4.05;;;3.47;;
72864;SDS011;61000;48.120;11.548;2023-07-29T00:34:09;4.07;;;3.10;;
72864;SDS011;61000;48.120;11.548;2023-07-29T00:36:36;3.83;;;3.10;;
72864;SDS011;61000;48.120;11.548;2023-07-29T00:39:04;4.55;;;3.67;;
72864;SDS011;61000;48.120;11.548;2023-07-29T00:41:31;4.68;;;3.22;;
72864;SDS011;61000;48.120;11.548;2023-07-29T00:43:59;4.95;;;3.50;;
72864;SDS011;61000;48.120;11.548;2023-07-29T00:46:29;5.10;;;3.17;;
72864;SDS011;61000;48.120;11.548;2023-07-29T00:48:56;4.93;;;3.50;;
72864;SDS011;61000;48.120;11.548;2023-07-29T00:51:23;7.47;;;3.45;;
72864;SDS011;61000;48.120;11.548;2023-07-29T00:53:50;5.07;;;4.03;;
72864;SDS011;61000;48.120;11.548;2023-07-29T00:56:17;3.95;;;3.30;;
72864;SDS011;61000;48.120;11.548;2023-07-29T00:58:44;4.25;;;2.97;;
72864;SDS011;61000;48.120;11.548;2023-07-29T01:01:11;3.70;;;3.05;;
72864;SDS011;61000;48.120;11.548;2023-07-29T01:03:38;3.63;;;3.13;;
72864;SDS011;61000;48.120;11.548;2023-07-29T01:06:08;4.03;;;3.63;;
72864;SDS011;61000;48.120;11.548;2023-07-29T01:08:51;7.00;;;3.47;;
72864;SDS011;61000;48.120;11.548;2023-07-29T01:11:31;4.40;;;3.33;;
72864;SDS011;61000;48.120;11.548;2023-07-29T01:14:05;5.63;;;3.08;;
72864;SDS011;61000;48.120;11.548;2023-07-29T01:16:39;5.15;;;3.30;;
72864;SDS011;61000;48.120;11.548;2023-07-29T01:19:09;4.43;;;3.30;;
72864;SDS011;61000;48.120;11.548;2023-07-29T01:21:49;7.10;;;3.45;;
72864;SDS011;61000;48.120;11.548;2023-07-29T01:24:19;3.60;;;3.28;;
72864;SDS011;61000;48.120;11.548;2023-07-29T01:26:46;6.03;;;3.08;;
72864;SDS011;61000;48.120;11.548;2023-07-29T01:29:13;4.88;;;3.10;;
72864;SDS011;61000;48.120;11.548;2023-07-29T01:31:41;4.25;;;3.25;;
72864;SDS011;61000;48.120;11.548;2023-07-29T01:34:13;4.03;;;3.00;;
72864;SDS011;61000;48.120;11.548;2023-07-29T01:36:48;5.10;;;3.00;;
72864;SDS011;61000;48.120;11.548;2023-07-29T01:39:18;4.15;;;3.00;;
72864;SDS011;61000;48.120;11.548;2023-07-29T01:41:48;3.30;;;3.00;;
72864;SDS011;61000;48.120;11.548;2023-07-29T01:44:15;3.80;;;2.85;;
72864;SDS011;61000;48.120;11.548;2023-07-29T01:46:43;2.90;;;2.60;;
72864;SDS011;61000;48.120;11.548;2023-07-29T01:49:10;4.70;;;3.15;;
72864;SDS011;61000;48.120;11.548;2023-07-29T01:51:37;3.28;;;2.63;;
72864;SDS011;61000;48.120;11.548;2023-07-29T01:54:04;4.05;;;3.33;;
72864;SDS011;61000;48.120;11.548;2023-07-29T01:56:32;6.97;;;3.05;;
72864;SDS011;61000;48.120;11.548;2023-07-29T01:58:59;4.25;;;3.15;;
72864;SDS011;61000;48.120;11.548;2023-07-29T02:01:27;3.30;;;3.00;;
72864;SDS011;61000;48.120;11.548;2023-07-29T02:03:55;4.25;;;3.15;;
72864;SDS011;61000;48.120;11.548;2023-07-29T02:06:22;6.30;;;3.58;;
72864;SDS011;61000;48.120;11.548;2023-07-29T02:08:49;4.18;;;3.47;;
72864;SDS011;61000;48.120;11.548;2023-07-29T02:11:17;3.42;;;3.13;;
72864;SDS011;61000;48.120;11.548;2023-07-29T02:13:47;5.38;;;3.33;;
72864;SDS011;61000;48.120;11.548;2023-07-29T02:16:14;3.83;;;2.50;;
72864;SDS011;61000;48.120;11.548;2023-07-29T02:18:40;4.15;;;3.20;;
72864;SDS011;61000;48.120;11.548;2023-07-29T02:21:07;3.22;;;2.90;;
72864;SDS011;61000;48.120;11.548;2023-07-29T02:23:34;3.38;;;2.88;;
72864;SDS011;61000;48.120;11.548;2023-07-29T02:26:01;3.47;;;3.17;;
72864;SDS011;61000;48.120;11.548;2023-07-29T02:28:28;4.20;;;3.50;;
72864;SDS011;61000;48.120;11.548;2023-07-29T02:31:09;3.10;;;2.75;;
72864;SDS011;61000;48.120;11.548;2023-07-29T02:33:41;3.65;;;3.08;;
72864;SDS011;61000;48.120;11.548;2023-07-29T02:36:08;6.20;;;3.75;;
72864;SDS011;61000;48.120;11.548;2023-07-29T02:38:35;4.65;;;2.97;;
72864;SDS011;61000;48.120;11.548;2023-07-29T02:41:02;4.30;;;3.45;;
72864;SDS011;61000;48.120;11.548;2023-07-29T02:43:29;3.35;;;2.83;;
72864;SDS011;61000;48.120;11.548;2023-07-29T02:45:56;3.70;;;2.80;;
72864;SDS011;61000;48.120;11.548;2023-07-29T02:48:24;4.00;;;3.30;;
72864;SDS011;61000;48.120;11.548;2023-07-29T02:50:51;6.18;;;3.70;;
72864;SDS011;61000;48.120;11.548;2023-07-29T02:53:18;3.35;;;3.00;;
72864;SDS011;61000;48.120;11.548;2023-07-29T02:55:45;4.13;;;3.20;;
72864;SDS011;61000;48.120;11.548;2023-07-29T02:58:12;3.72;;;3.33;;
72864;SDS011;61000;48.120;11.548;2023-07-29T03:00:39;5.55;;;3.42;;
72864;SDS011;61000;48.120;11.548;2023-07-29T03:03:07;3.22;;;2.92;;
72864;SDS011;61000;48.120;11.548;2023-07-29T03:05:35;4.03;;;3.15;;
72864;SDS011;61000;48.120;11.548;2023-07-29T03:08:03;4.15;;;3.42;;
72864;SDS011;61000;48.120;11.548;2023-07-29T03:10:30;4.55;;;3.65;;
72864;SDS011;61000;48.120;11.548;2023-07-29T03:12:57;3.65;;;3.00;;
72864;SDS011;61000;48.120;11.548;2023-07-29T03:15:24;5.15;;;3.17;;
72864;SDS011;61000;48.120;11.548;2023-07-29T03:17:51;4.65;;;3.47;;
72864;SDS011;61000;48.120;11.548;2023-07-29T03:20:18;5.35;;;3.60;;
72864;SDS011;61000;48.120;11.548;2023-07-29T03:22:47;4.72;;;2.92;;
72864;SDS011;61000;48.120;11.548;2023-07-29T03:25:14;5.45;;;2.88;;
72864;SDS011;61000;48.120;11.548;2023-07-29T03:27:41;3.42;;;2.80;;
72864;SDS011;61000;48.120;11.548;2023-07-29T03:30:08;3.17;;;2.65;;
72864;SDS011;61000;48.120;11.548;2023-07-29T03:32:35;3.25;;;2.88;;
72864;SDS011;61000;48.120;11.548;2023-07-29T03:35:04;3.75;;;3.00;;
72864;SDS011;61000;48.120;11.548;2023-07-29T03:37:31;4.25;;;2.92;;
72864;SDS011;61000;48.120;11.548;2023-07-29T03:39:59;3.45;;;2.40;;
72864;SDS011;61000;48.120;11.548;2023-07-29T03:42:26;2.42;;;2.22;;
72864;SDS011;61000;48.120;11.548;2023-07-29T03:44:53;5.20;;;2.67;;
72864;SDS011;61000;48.120;11.548;2023-07-29T03:47:20;3.47;;;2.90;;
72864;SDS011;61000;48.120;11.548;2023-07-29T03:49:47;2.55;;;2.33;;
72864;SDS011;61000;48.120;11.548;2023-07-29T03:52:17;3.72;;;2.42;;
72864;SDS011;61000;48.120;11.548;2023-07-29T03:54:44;2.88;;;2.53;;
72864;SDS011;61000;48.120;11.548;2023-07-29T03:57:12;2.92;;;2.30;;
72864;SDS011;61000;48.120;11.548;2023-07-29T03:59:39;4.57;;;2.55;;
72864;SDS011;61000;48.120;11.548;2023-07-29T04:02:06;3.40;;;2.55;;
72864;SDS011;61000;48.120;11.548;2023-07-29T04:04:33;3.90;;;2.80;;
72864;SDS011;61000;48.120;11.548;2023-07-29T04:07:00;3.38;;;3.05;;
72864;SDS011;61000;48.120;11.548;2023-07-29T04:09:27;4.25;;;2.72;;
72864;SDS011;61000;48.120;11.548;2023-07-29T04:11:54;2.88;;;2.50;;
72864;SDS011;61000;48.120;11.548;2023-07-29T04:14:22;7.68;;;2.60;;
72864;SDS011;61000;48.120;11.548;2023-07-29T04:16:49;2.95;;;2.42;;
72864;SDS011;61000;48.120;11.548;2023-07-29T04:19:16;5.05;;;2.80;;
72864;SDS011;61000;48.120;11.548;2023-07-29T04:21:43;4.50;;;3.17;;
72864;SDS011;61000;48.120;11.548;2023-07-29T04:24:11;5.55;;;4.30;;
72864;SDS011;61000;48.120;11.548;2023-07-29T04:26:38;7.22;;;3.13;;
72864;SDS011;61000;48.120;11.548;2023-07-29T04:29:05;3.70;;;3.28;;
72864;SDS011;61000;48.120;11.548;2023-07-29T04:31:33;3.13;;;2.58;;
72864;SDS011;61000;48.120;11.548;2023-07-29T04:34:00;4.70;;;2.83;;
72864;SDS011;61000;48.120;11.548;2023-07-29T04:36:27;3.53;;;2.58;;
72864;SDS011;61000;48.120;11.548;2023-07-29T04:38:54;3.20;;;2.90;;
72864;SDS011;61000;48.120;11.548;2023-07-29T04:41:21;3.63;;;2.78;;
72864;SDS011;61000;48.120;11.548;2023-07-29T04:43:50;4.28;;;2.45;;
72864;SDS011;61000;48.120;11.548;2023-07-29T04:46:17;4.18;;;2.50;;
72864;SDS011;61000;48.120;11.548;2023-07-29T04:48:45;3.55;;;2.80;;
72864;SDS011;61000;48.120;11.548;2023-07-29T04:51:12;4.60;;;2.90;;
72864;SDS011;61000;48.120;11.548;2023-07-29T04:53:39;3.88;;;2.90;;
72864;SDS011;61000;48.120;11.548;2023-07-29T04:56:06;3.28;;;2.40;;
72864;SDS011;61000;48.120;11.548;2023-07-29T04:58:33;6.03;;;2.83;;
72864;SDS011;61000;48.120;11.548;2023-07-29T05:01:01;2.50;;;2.30;;
72864;SDS011;61000;48.120;11.548;2023-07-29T05:03:28;2.60;;;2.40;;
72864;SDS011;61000;48.120;11.548;2023-07-29T05:05:57;3.58;;;2.20;;
72864;SDS011;61000;48.120;11.548;2023-07-29T05:08:26;2.60;;;2.40;;
72864;SDS011;61000;48.120;11.548;2023-07-29T05:10:53;3.03;;;2.55;;
72864;SDS011;61000;48.120;11.548;2023-07-29T05:13:22;3.38;;;2.05;;
72864;SDS011;61000;48.120;11.548;2023-07-29T05:15:49;1.85;;;1.75;;
72864;SDS011;61000;48.120;11.548;2023-07-29T05:18:17;2.30;;;2.10;;
72864;SDS011;61000;48.120;11.548;2023-07-29T05:20:44;2.47;;;1.92;;
72864;SDS011;61000;48.120;11.548;2023-07-29T05:23:12;1.85;;;1.45;;
72864;SDS011;61000;48.120;11.548;2023-07-29T05:25:39;4.35;;;2.20;;
72864;SDS011;61000;48.120;11.548;2023-07-29T05:28:06;3.38;;;2.33;;
72864;SDS011;61000;48.120;11.548;2023-07-29T05:30:33;1.98;;;1.88;;
72864;SDS011;61000;48.120;11.548;2023-07-29T05:33:03;2.85;;;1.80;;
72864;SDS011;61000;48.120;11.548;2023-07-29T05:35:30;2.10;;;1.80;;
72864;SDS011;61000;48.120;11.548;2023-07-29T05:37:58;2.97;;;2.55;;
72864;SDS011;61000;48.120;11.548;2023-07-29T05:40:26;3.40;;;1.80;;
72864;SDS011;61000;48.120;11.548;2023-07-29T05:42:53;1.95;;;1.73;;
72864;SDS011;61000;48.120;11.548;2023-07-29T05:45:20;3.25;;;1.95;;
72864;SDS011;61000;48.120;11.548;2023-07-29T05:47:47;3.45;;;1.77;;
72864;SDS011;61000;48.120;11.548;2023-07-29T05:50:14;3.25;;;1.80;;
72864;SDS011;61000;48.120;11.548;2023-07-29T05:52:41;2.67;;;1.70;;
72864;SDS011;61000;48.120;11.548;2023-07-29T05:55:08;2.15;;;1.90;;
72864;SDS011;61000;48.120;11.548;2023-07-29T05:57:36;2.70;;;1.52;;
72864;SDS011;61000;48.120;11.548;2023-07-29T06:00:06;3.38;;;2.28;;
72864;SDS011;61000;48.120;11.548;2023-07-29T06:02:38;2.78;;;2.10;;
72864;SDS011;61000;48.120;11.548;2023-07-29T06:05:18;4.97;;;2.47;;
72864;SDS011;61000;48.120;11.548;2023-07-29T06:07:45;6.95;;;2.42;;
72864;SDS011;61000;48.120;11.548;2023-07-29T06:10:14;5.85;;;2.85;;
72864;SDS011;61000;48.120;11.548;2023-07-29T06:12:44;4.13;;;2.40;;
72864;SDS011;61000;48.120;11.548;2023-07-29T06:15:12;4.38;;;2.40;;
72864;SDS011;61000;48.120;11.548;2023-07-29T06:17:40;5.90;;;2.20;;
72864;SDS011;61000;48.120;11.548;2023-07-29T06:20:07;2.70;;;2.25;;
72864;SDS011;61000;48.120;11.548;2023-07-29T06:22:35;3.08;;;2.42;;
72864;SDS011;61000;48.120;11.548;2023-07-29T06:25:02;4.45;;;2.13;;
72864;SDS011;61000;48.120;11.548;2023-07-29T06:27:29;4.53;;;2.20;;
72864;SDS011;61000;48.120;11.548;2023-07-29T06:29:57;2.30;;;2.00;;
72864;SDS011;61000;48.120;11.548;2023-07-29T06:32:24;4.25;;;2.42;;
72864;SDS011;61000;48.120;11.548;2023-07-29T06:34:51;3.20;;;2.05;;
72864;SDS011;61000;48.120;11.548;2023-07-29T06:37:19;2.58;;;1.90;;
72864;SDS011;61000;48.120;11.548;2023-07-29T06:39:48;2.17;;;1.90;;
72864;SDS011;61000;48.120;11.548;2023-07-29T06:42:15;2.67;;;2.08;;
72864;SDS011;61000;48.120;11.548;2023-07-29T06:44:41;3.67;;;2.03;;
72864;SDS011;61000;48.120;11.548;2023-07-29T06:47:12;4.93;;;2.10;;
72864;SDS011;61000;48.120;11.548;2023-07-29T06:49:39;3.05;;;2.00;;
72864;SDS011;61000;48.120;11.548;2023-07-29T06:52:06;3.58;;;2.58;;
72864;SDS011;61000;48.120;11.548;2023-07-29T06:54:33;4.05;;;2.88;;
72864;SDS011;61000;48.120;11.548;2023-07-29T06:56:59;3.15;;;2.60;;
72864;SDS011;61000;48.120;11.548;2023-07-29T06:59:26;4.95;;;2.92;;
72864;SDS011;61000;48.120;11.548;2023-07-29T07:01:53;5.30;;;3.08;;
72864;SDS011;61000;48.120;11.548;2023-07-29T07:04:21;4.18;;;3.25;;
72864;SDS011;61000;48.120;11.548;2023-07-29T07:06:48;3.22;;;2.78;;
72864;SDS011;61000;48.120;11.548;2023-07-29T07:09:15;4.53;;;3.40;;
72864;SDS011;61000;48.120;11.548;2023-07-29T07:11:42;3.42;;;2.58;;
72864;SDS011;61000;48.120;11.548;2023-07-29T07:14:09;2.72;;;2.47;;
72864;SDS011;61000;48.120;11.548;2023-07-29T07:16:35;4.60;;;3.03;;
72864;SDS011;61000;48.120;11.548;2023-07-29T07:19:04;5.60;;;3.08;;
72864;SDS011;61000;48.120;11.548;2023-07-29T07:21:32;7.45;;;3.28;;
72864;SDS011;61000;48.120;11.548;2023-07-29T07:23:59;3.25;;;2.95;;
72864;SDS011;61000;48.120;11.548;2023-07-29T07:26:26;4.00;;;2.95;;
72864;SDS011;61000;48.120;11.548;2023-07-29T07:28:53;4.72;;;2.88;;
72864;SDS011;61000;48.120;11.548;2023-07-29T07:31:21;7.47;;;3.17;;
72864;SDS011;61000;48.120;11.548;2023-07-29T07:33:48;7.00;;;4.85;;
72864;SDS011;61000;48.120;11.548;2023-07-29T07:36:15;5.00;;;3.20;;
72864;SDS011;61000;48.120;11.548;2023-07-29T07:38:43;4.18;;;3.28;;
72864;SDS011;61000;48.120;11.548;2023-07-29T07:41:10;6.25;;;3.63;;
72864;SDS011;61000;48.120;11.548;2023-07-29T07:43:37;4.30;;;3.88;;
72864;SDS011;61000;48.120;11.548;2023-07-29T07:46:04;10.07;;;3.00;;
72864;SDS011;61000;48.120;11.548;2023-07-29T07:48:31;14.82;;;3.75;;
72864;SDS011;61000;48.120;11.548;2023-07-29T07:50:59;3.83;;;3.13;;
72864;SDS011;61000;48.120;11.548;2023-07-29T07:53:25;4.50;;;3.63;;
72864;SDS011;61000;48.120;11.548;2023-07-29T07:55:54;4.32;;;3.17;;
72864;SDS011;61000;48.120;11.548;2023-07-29T07:58:21;3.67;;;3.17;;
72864;SDS011;61000;48.120;11.548;2023-07-29T08:00:47;4.75;;;3.13;;
72864;SDS011;61000;48.120;11.548;2023-07-29T08:03:14;3.97;;;2.92;;
72864;SDS011;61000;48.120;11.548;2023-07-29T08:05:41;5.50;;;3.65;;
72864;SDS011;61000;48.120;11.548;2023-07-29T08:08:08;6.75;;;3.78;;
72864;SDS011;61000;48.120;11.548;2023-07-29T08:10:35;4.15;;;3.60;;
72864;SDS011;61000;48.120;11.548;2023-07-29T08:13:03;3.55;;;3.25;;
72864;SDS011;61000;48.120;11.548;2023-07-29T08:15:30;4.90;;;3.40;;
72864;SDS011;61000;48.120;11.548;2023-07-29T08:17:57;7.30;;;4.22;;
72864;SDS011;61000;48.120;11.548;2023-07-29T08:20:24;5.10;;;3.38;;
72864;SDS011;61000;48.120;11.548;2023-07-29T08:22:50;4.53;;;3.20;;
72864;SDS011;61000;48.120;11.548;2023-07-29T08:25:17;4.05;;;3.10;;
72864;SDS011;61000;48.120;11.548;2023-07-29T08:27:44;5.30;;;3.20;;
72864;SDS011;61000;48.120;11.548;2023-07-29T08:30:12;3.90;;;3.22;;
72864;SDS011;61000;48.120;11.548;2023-07-29T08:32:41;4.40;;;3.33;;
72864;SDS011;61000;48.120;11.548;2023-07-29T08:35:07;2.78;;;2.45;;
72864;SDS011;61000;48.120;11.548;2023-07-29T08:37:34;3.45;;;2.80;;
72864;SDS011;61000;48.120;11.548;2023-07-29T08:40:01;2.85;;;2.63;;
72864;SDS011;61000;48.120;11.548;2023-07-29T08:42:29;3.28;;;2.78;;
72864;SDS011;61000;48.120;11.548;2023-07-29T08:44:59;3.40;;;2.75;;
72864;SDS011;61000;48.120;11.548;2023-07-29T08:47:35;3.63;;;3.33;;
72864;SDS011;61000;48.120;11.548;2023-07-29T08:50:02;5.15;;;3.42;;
72864;SDS011;61000;48.120;11.548;2023-07-29T08:52:30;4.53;;;3.40;;
72864;SDS011;61000;48.120;11.548;2023-07-29T08:54:59;3.20;;;2.85;;
72864;SDS011;61000;48.120;11.548;2023-07-29T08:57:27;3.55;;;3.20;;
72864;SDS011;61000;48.120;11.548;2023-07-29T08:59:54;4.30;;;2.83;;
72864;SDS011;61000;48.120;11.548;2023-07-29T09:02:22;4.72;;;3.38;;
72864;SDS011;61000;48.120;11.548;2023-07-29T09:04:51;3.90;;;2.63;;
72864;SDS011;61000;48.120;11.548;2023-07-29T09:07:18;3.38;;;3.03;;
72864;SDS011;61000;48.120;11.548;2023-07-29T09:09:45;5.47;;;3.10;;
72864;SDS011;61000;48.120;11.548;2023-07-29T09:12:12;5.03;;;3.28;;
72864;SDS011;61000;48.120;11.548;2023-07-29T09:14:39;3.60;;;2.65;;
72864;SDS011;61000;48.120;11.548;2023-07-29T09:17:06;3.25;;;2.55;;
72864;SDS011;61000;48.120;11.548;2023-07-29T09:19:34;3.90;;;3.17;;
72864;SDS011;61000;48.120;11.548;2023-07-29T09:22:03;4.75;;;2.35;;
72864;SDS011;61000;48.120;11.548;2023-07-29T09:24:30;2.42;;;2.22;;
72864;SDS011;61000;48.120;11.548;2023-07-29T09:26:57;3.97;;;2.40;;
72864;SDS011;61000;48.120;11.548;2023-07-29T09:29:24;5.07;;;3.28;;
72864;SDS011;61000;48.120;11.548;2023-07-29T09:31:55;3.78;;;2.42;;
72864;SDS011;61000;48.120;11.548;2023-07-29T09:34:42;2.60;;;2.40;;
72864;SDS011;61000;48.120;11.548;2023-07-29T09:37:12;3.15;;;2.30;;
72864;SDS011;61000;48.120;11.548;2023-07-29T09:39:43;2.38;;;2.17;;
72864;SDS011;61000;48.120;11.548;2023-07-29T09:42:11;2.53;;;2.33;;
72864;SDS011;61000;48.120;11.548;2023-07-29T09:44:42;3.30;;;2.53;;
72864;SDS011;61000;48.120;11.548;2023-07-29T09:47:08;4.38;;;2.30;;
72864;SDS011;61000;48.120;11.548;2023-07-29T09:49:35;2.63;;;2.42;;
72864;SDS011;61000;48.120;11.548;2023-07-29T09:52:02;2.80;;;2.20;;
72864;SDS011;61000;48.120;11.548;2023-07-29T09:54:31;2.95;;;2.40;;
72864;SDS011;61000;48.120;11.548;2023-07-29T09:56:58;2.67;;;2.47;;
72864;SDS011;61000;48.120;11.548;2023-07-29T09:59:26;3.05;;;2.08;;
72864;SDS011;61000;48.120;11.548;2023-07-29T10:01:52;2.53;;;2.30;;
72864;SDS011;61000;48.120;11.548;2023-07-29T10:04:19;3.55;;;2.45;;
72864;SDS011;61000;48.120;11.548;2023-07-29T10:06:47;2.75;;;2.50;;
72864;SDS011;61000;48.120;11.548;2023-07-29T10:09:14;2.92;;;2.63;;
72864;SDS011;61000;48.120;11.548;2023-07-29T10:11:44;3.55;;;2.45;;
72864;SDS011;61000;48.120;11.548;2023-07-29T10:14:11;2.35;;;2.15;;
72864;SDS011;61000;48.120;11.548;2023-07-29T10:16:39;4.20;;;2.17;;
72864;SDS011;61000;48.120;11.548;2023-07-29T10:19:06;3.97;;;2.30;;
72864;SDS011;61000;48.120;11.548;2023-07-29T10:21:33;3.30;;;2.47;;
72864;SDS011;61000;48.120;11.548;2023-07-29T10:24:02;2.70;;;2.50;;
72864;SDS011;61000;48.120;11.548;2023-07-29T10:26:35;3.05;;;2.22;;
72864;SDS011;61000;48.120;11.548;2023-07-29T10:29:07;2.72;;;2.22;;
72864;SDS011;61000;48.120;11.548;2023-07-29T10:31:38;3.90;;;2.83;;
72864;SDS011;61000;48.120;11.548;2023-07-29T10:34:08;3.10;;;2.67;;
72864;SDS011;61000;48.120;11.548;2023-07-29T10:36:36;2.33;;;2.13;;
72864;SDS011;61000;48.120;11.548;2023-07-29T10:39:03;2.42;;;2.22;;
72864;SDS011;61000;48.120;11.548;2023-07-29T10:47:23;3.20;;;2.83;;
72864;SDS011;61000;48.120;11.548;2023-07-29T10:49:52;3.22;;;2.92;;
72864;SDS011;61000;48.120;11.548;2023-07-29T10:52:30;4.68;;;2.45;;
72864;SDS011;61000;48.120;11.548;2023-07-29T10:55:22;2.47;;;2.20;;
72864;SDS011;61000;48.120;11.548;2023-07-29T10:57:51;2.65;;;2.45;;
72864;SDS011;61000;48.120;11.548;2023-07-29T11:00:20;2.75;;;2.55;;
72864;SDS011;61000;48.120;11.548;2023-07-29T11:02:56;2.83;;;2.63;;
72864;SDS011;61000;48.120;11.548;2023-07-29T11:05:46;2.90;;;2.50;;
72864;SDS011;61000;48.120;11.548;2023-07-29T11:08:19;3.28;;;2.97;;
72864;SDS011;61000;48.120;11.548;2023-07-29T11:10:57;2.90;;;2.58;;
72864;SDS011;61000;48.120;11.548;2023-07-29T11:13:27;4.15;;;2.78;;
72864;SDS011;61000;48.120;11.548;2023-07-29T11:15:55;3.10;;;2.08;;
72864;SDS011;61000;48.120;11.548;2023-07-29T11:18:25;3.85;;;2.90;;
72864;SDS011;61000;48.120;11.548;2023-07-29T11:20:56;2.92;;;2.63;;
72864;SDS011;61000;48.120;11.548;2023-07-29T11:23:30;3.92;;;2.33;;
72864;SDS011;61000;48.120;11.548;2023-07-29T11:25:57;2.95;;;1.65;;
72864;SDS011;61000;48.120;11.548;2023-07-29T11:28:25;1.73;;;1.63;;
72864;SDS011;61000;48.120;11.548;2023-07-29T11:30:52;3.22;;;1.83;;
72864;SDS011;61000;48.120;11.548;2023-07-29T11:33:22;1.63;;;1.52;;
72864;SDS011;61000;48.120;11.548;2023-07-29T11:35:50;2.35;;;1.65;;
72864;SDS011;61000;48.120;11.548;2023-07-29T11:38:18;2.05;;;1.63;;
72864;SDS011;61000;48.120;11.548;2023-07-29T11:40:56;3.35;;;1.92;;
72864;SDS011;61000;48.120;11.548;2023-07-29T11:43:25;5.25;;;1.92;;
72864;SDS011;61000;48.120;11.548;2023-07-29T11:45:52;2.67;;;2.05;;
72864;SDS011;61000;48.120;11.548;2023-07-29T11:48:27;1.92;;;1.83;;
72864;SDS011;61000;48.120;11.548;2023-07-29T11:50:54;2.42;;;1.77;;
72864;SDS011;61000;48.120;11.548;2023-07-29T11:53:21;2.47;;;2.17;;
72864;SDS011;61000;48.120;11.548;2023-07-29T11:55:49;2.15;;;1.95;;
72864;SDS011;61000;48.120;11.548;2023-07-29T11:58:18;1.77;;;1.67;;
72864;SDS011;61000;48.120;11.548;2023-07-29T12:00:45;3.38;;;2.00;;
72864;SDS011;61000;48.120;11.548;2023-07-29T12:03:12;4.00;;;2.05;;
72864;SDS011;61000;48.120;11.548;2023-07-29T12:05:43;3.22;;;2.20;;
72864;SDS011;61000;48.120;11.548;2023-07-29T12:08:10;3.75;;;2.28;;
72864;SDS011;61000;48.120;11.548;2023-07-29T12:10:37;2.40;;;2.08;;
72864;SDS011;61000;48.120;11.548;2023-07-29T12:13:04;2.50;;;2.30;;
72864;SDS011;61000;48.120;11.548;2023-07-29T12:15:34;2.40;;;2.20;;
72864;SDS011;61000;48.120;11.548;2023-07-29T12:18:03;3.55;;;2.30;;
72864;SDS011;61000;48.120;11.548;2023-07-29T12:20:30;3.50;;;2.60;;
72864;SDS011;61000;48.120;11.548;2023-07-29T12:22:59;3.20;;;2.58;;
72864;SDS011;61000;48.120;11.548;2023-07-29T12:25:28;3.28;;;2.13;;
72864;SDS011;61000;48.120;11.548;2023-07-29T12:27:55;2.90;;;2.70;;
72864;SDS011;61000;48.120;11.548;2023-07-29T12:30:22;3.15;;;2.35;;
72864;SDS011;61000;48.120;11.548;2023-07-29T12:32:49;2.55;;;1.85;;
72864;SDS011;61000;48.120;11.548;2023-07-29T12:35:16;3.42;;;2.40;;
72864;SDS011;61000;48.120;11.548;2023-07-29T12:37:43;2.63;;;2.40;;
72864;SDS011;61000;48.120;11.548;2023-07-29T12:40:22;3.95;;;2.20;;
72864;SDS011;61000;48.120;11.548;2023-07-29T12:42:49;2.65;;;2.17;;
72864;SDS011;61000;48.120;11.548;2023-07-29T12:45:16;5.45;;;4.93;;
72864;SDS011;61000;48.120;11.548;2023-07-29T12:47:43;3.05;;;2.63;;
72864;SDS011;61000;48.120;11.548;2023-07-29T12:50:10;3.22;;;2.92;;
72864;SDS011;61000;48.120;11.548;2023-07-29T12:52:37;3.13;;;2.53;;
72864;SDS011;61000;48.120;11.548;2023-07-29T12:55:05;2.45;;;2.20;;
72864;SDS011;61000;48.120;11.548;2023-07-29T12:57:35;2.40;;;2.20;;
72864;SDS011;61000;48.120;11.548;2023-07-29T13:00:02;4.20;;;2.75;;
72864;SDS011;61000;48.120;11.548;2023-07-29T13:02:29;2.45;;;2.25;;
72864;SDS011;61000;48.120;11.548;2023-07-29T13:04:57;2.88;;;2.28;;
72864;SDS011;61000;48.120;11.548;2023-07-29T13:07:24;3.78;;;2.80;;
72864;SDS011;61000;48.120;11.548;2023-07-29T13:09:51;3.28;;;2.65;;
72864;SDS011;61000;48.120;11.548;2023-07-29T13:12:18;5.75;;;2.78;;
72864;SDS011;61000;48.120;11.548;2023-07-29T13:14:46;3.28;;;2.72;;
72864;SDS011;61000;48.120;11.548;2023-07-29T13:17:13;5.60;;;3.13;;
72864;SDS011;61000;48.120;11.548;2023-07-29T13:19:40;4.50;;;3.60;;
72864;SDS011;61000;48.120;11.548;2023-07-29T13:22:07;4.65;;;3.10;;
72864;SDS011;61000;48.120;11.548;2023-07-29T13:24:34;3.72;;;3.03;;
72864;SDS011;61000;48.120;11.548;2023-07-29T13:27:01;6.35;;;3.60;;
72864;SDS011;61000;48.120;11.548;2023-07-29T13:29:28;7.30;;;4.40;;
72864;SDS011;61000;48.120;11.548;2023-07-29T13:31:56;5.32;;;3.70;;
72864;SDS011;61000;48.120;11.548;2023-07-29T13:34:23;6.70;;;3.75;;
72864;SDS011;61000;48.120;11.548;2023-07-29T13:36:50;6.18;;;4.15;;
72864;SDS011;61000;48.120;11.548;2023-07-29T13:39:16;5.88;;;3.30;;
72864;SDS011;61000;48.120;11.548;2023-07-29T13:41:43;6.03;;;3.65;;
72864;SDS011;61000;48.120;11.548;2023-07-29T13:44:10;6.45;;;3.67;;
72864;SDS011;61000;48.120;11.548;2023-07-29T13:46:37;3.92;;;3.53;;
72864;SDS011;61000;48.120;11.548;2023-07-29T13:49:05;5.25;;;3.55;;
72864;SDS011;61000;48.120;11.548;2023-07-29T13:51:32;6.43;;;4.53;;
72864;SDS011;61000;48.120;11.548;2023-07-29T13:53:59;5.78;;;3.85;;
72864;SDS011;61000;48.120;11.548;2023-07-29T13:56:26;4.15;;;3.30;;
72864;SDS011;61000;48.120;11.548;2023-07-29T13:58:53;6.20;;;3.30;;
72864;SDS011;61000;48.120;11.548;2023-07-29T14:01:20;6.35;;;3.42;;
72864;SDS011;61000;48.120;11.548;2023-07-29T14:03:47;4.35;;;3.42;;
72864;SDS011;61000;48.120;11.548;2023-07-29T14:06:15;4.47;;;3.33;;
72864;SDS011;61000;48.120;11.548;2023-07-29T14:08:42;6.68;;;3.58;;
72864;SDS011;61000;48.120;11.548;2023-07-29T14:11:08;6.13;;;3.40;;
72864;SDS011;61000;48.120;11.548;2023-07-29T14:13:35;4.13;;;3.70;;
72864;SDS011;61000;48.120;11.548;2023-07-29T14:16:02;5.00;;;3.90;;
72864;SDS011;61000;48.120;11.548;2023-07-29T14:18:30;5.18;;;4.18;;
72864;SDS011;61000;48.120;11.548;2023-07-29T14:20:57;4.43;;;3.70;;
72864;SDS011;61000;48.120;11.548;2023-07-29T14:23:25;6.03;;;3.85;;
72864;SDS011;61000;48.120;11.548;2023-07-29T14:25:52;5.35;;;3.30;;
72864;SDS011;61000;48.120;11.548;2023-07-29T14:28:19;5.13;;;3.50;;
72864;SDS011;61000;48.120;11.548;2023-07-29T14:30:46;5.35;;;3.30;;
72864;SDS011;61000;48.120;11.548;2023-07-29T14:33:13;5.05;;;4.30;;
72864;SDS011;61000;48.120;11.548;2023-07-29T14:35:41;5.72;;;4.03;;
72864;SDS011;61000;48.120;11.548;2023-07-29T14:38:07;7.00;;;4.00;;
72864;SDS011;61000;48.120;11.548;2023-07-29T14:40:36;9.45;;;5.10;;
72864;SDS011;61000;48.120;11.548;2023-07-29T14:43:03;4.97;;;4.22;;
72864;SDS011;61000;48.120;11.548;2023-07-29T14:45:29;6.32;;;4.28;;